sensor_id;sensor_type;location;lat;lon;timestamp;pressure;altitude;pressure_sealevel;temperature;humidity
61908;BME280;47864;52.526;19.672;2023-03-04T00:01:39;100664.69;;;1.03;100.00
61908;BME280;47864;52.526;19.672;2023-03-04T00:03:41;100654.69;;;0.95;100.00
61908;BME280;47864;52.526;19.672;2023-03-04T00:05:42;100648.56;;;1.10;100.00
61908;BME280;47864;52.526;19.672;2023-03-04T00:07:44;100622.44;;;0.96;100.00
61908;BME280;47864;52.526;19.672;2023-03-04T00:09:45;100606.28;;;0.90;100.00
61908;BME280;47864;52.526;19.672;2023-03-04T00:11:47;100617.41;;;1.07;100.00
61908;BME280;47864;52.526;19.672;2023-03-04T00:13:49;100595.34;;;0.83;100.00
61908;BME280;47864;52.526;19.672;2023-03-04T00:15:50;100607.25;;;1.03;100.00
61908;BME280;47864;52.526;19.672;2023-03-04T00:17:52;100616.47;;;1.08;100.00
61908;BME280;47864;52.526;19.672;2023-03-04T00:19:53;100612.69;;;1.14;100.00
61908;BME280;47864;52.526;19.672;2023-03-04T00:21:55;100609.47;;;1.09;100.00
61908;BME280;47864;52.526;19.672;2023-03-04T00:23:56;100618.75;;;1.14;100.00
61908;BME280;47864;52.526;19.672;2023-03-04T00:25:58;100618.16;;;1.09;100.00
61908;BME280;47864;52.526;19.672;2023-03-04T00:27:59;100621.69;;;1.08;100.00
61908;BME280;47864;52.526;19.672;2023-03-04T00:30:00;100621.25;;;1.16;100.00
61908;BME280;47864;52.526;19.672;2023-03-04T00:32:02;100602.56;;;1.08;100.00
61908;BME280;47864;52.526;19.672;2023-03-04T00:34:04;100603.53;;;1.21;100.00
61908;BME280;47864;52.526;19.672;2023-03-04T00:36:05;100591.41;;;1.20;100.00
61908;BME280;47864;52.526;19.672;2023-03-04T00:38:07;100573.50;;;1.14;100.00
61908;BME280;47864;52.526;19.672;2023-03-04T00:40:09;100591.13;;;1.25;100.00
61908;BME280;47864;52.526;19.672;2023-03-04T00:42:11;100584.22;;;1.24;100.00
61908;BME280;47864;52.526;19.672;2023-03-04T00:44:12;100565.38;;;1.19;100.00
61908;BME280;47864;52.526;19.672;2023-03-04T00:46:14;100582.94;;;1.31;100.00
61908;BME280;47864;52.526;19.672;2023-03-04T00:48:15;100575.28;;;1.28;100.00
61908;BME280;47864;52.526;19.672;2023-03-04T00:50:17;100589.09;;;1.30;100.00
61908;BME280;47864;52.526;19.672;2023-03-04T00:52:18;100563.50;;;1.21;100.00
61908;BME280;47864;52.526;19.672;2023-03-04T00:54:20;100563.44;;;1.36;100.00
61908;BME280;47864;52.526;19.672;2023-03-04T00:56:21;100565.09;;;1.37;100.00
61908;BME280;47864;52.526;19.672;2023-03-04T00:58:23;100526.19;;;1.19;100.00
61908;BME280;47864;52.526;19.672;2023-03-04T01:00:24;100558.94;;;1.38;100.00
61908;BME280;47864;52.526;19.672;2023-03-04T01:02:26;100550.28;;;1.38;100.00
61908;BME280;47864;52.526;19.672;2023-03-04T01:04:27;100529.16;;;1.41;100.00
61908;BME280;47864;52.526;19.672;2023-03-04T01:06:29;100497.25;;;1.36;100.00
61908;BME280;47864;52.526;19.672;2023-03-04T01:08:30;100497.72;;;1.42;100.00
61908;BME280;47864;52.526;19.672;2023-03-04T01:10:32;100494.56;;;1.37;100.00
61908;BME280;47864;52.526;19.672;2023-03-04T01:12:33;100476.75;;;1.30;100.00
61908;BME280;47864;52.526;19.672;2023-03-04T01:14:35;100482.59;;;1.47;100.00
61908;BME280;47864;52.526;19.672;2023-03-04T01:16:36;100447.06;;;1.31;100.00
61908;BME280;47864;52.526;19.672;2023-03-04T01:18:38;100466.81;;;1.35;100.00
61908;BME280;47864;52.526;19.672;2023-03-04T01:20:39;100462.91;;;1.42;100.00
61908;BME280;47864;52.526;19.672;2023-03-04T01:22:40;100459.78;;;1.49;100.00
61908;BME280;47864;52.526;19.672;2023-03-04T01:24:42;100439.69;;;1.37;100.00
61908;BME280;47864;52.526;19.672;2023-03-04T01:26:43;100437.34;;;1.33;100.00
61908;BME280;47864;52.526;19.672;2023-03-04T01:28:45;100455.75;;;1.58;100.00
61908;BME280;47864;52.526;19.672;2023-03-04T01:30:46;100451.47;;;1.57;100.00
61908;BME280;47864;52.526;19.672;2023-03-04T01:32:48;100437.28;;;1.61;100.00
61908;BME280;47864;52.526;19.672;2023-03-04T01:34:49;100416.38;;;1.61;100.00
61908;BME280;47864;52.526;19.672;2023-03-04T01:36:50;100393.28;;;1.41;100.00
61908;BME280;47864;52.526;19.672;2023-03-04T01:38:52;100404.81;;;1.51;100.00
61908;BME280;47864;52.526;19.672;2023-03-04T01:40:53;100361.78;;;1.30;100.00
61908;BME280;47864;52.526;19.672;2023-03-04T01:42:55;100387.84;;;1.44;100.00
61908;BME280;47864;52.526;19.672;2023-03-04T01:44:56;100380.56;;;1.49;100.00
61908;BME280;47864;52.526;19.672;2023-03-04T01:46:58;100368.81;;;1.42;100.00
61908;BME280;47864;52.526;19.672;2023-03-04T01:48:59;100382.03;;;1.53;100.00
61908;BME280;47864;52.526;19.672;2023-03-04T01:51:05;100388.94;;;1.54;100.00
61908;BME280;47864;52.526;19.672;2023-03-04T01:53:16;100370.06;;;1.36;100.00
61908;BME280;47864;52.526;19.672;2023-03-04T01:55:21;100388.97;;;1.67;100.00
61908;BME280;47864;52.526;19.672;2023-03-04T01:57:25;100390.25;;;1.74;100.00
61908;BME280;47864;52.526;19.672;2023-03-04T01:59:29;100391.91;;;1.62;100.00
61908;BME280;47864;52.526;19.672;2023-03-04T02:01:31;100395.28;;;1.64;100.00
61908;BME280;47864;52.526;19.672;2023-03-04T02:03:33;100380.31;;;1.66;100.00
61908;BME280;47864;52.526;19.672;2023-03-04T02:05:51;100384.50;;;1.69;100.00
61908;BME280;47864;52.526;19.672;2023-03-04T02:07:53;100406.19;;;1.83;100.00
61908;BME280;47864;52.526;19.672;2023-03-04T02:09:55;100388.63;;;1.59;100.00
61908;BME280;47864;52.526;19.672;2023-03-04T02:11:57;100399.00;;;1.60;100.00
61908;BME280;47864;52.526;19.672;2023-03-04T02:13:59;100418.09;;;1.75;100.00
61908;BME280;47864;52.526;19.672;2023-03-04T02:16:00;100420.00;;;1.85;100.00
61908;BME280;47864;52.526;19.672;2023-03-04T02:18:10;100418.75;;;1.91;100.00
61908;BME280;47864;52.526;19.672;2023-03-04T02:22:31;100422.19;;;2.06;100.00
61908;BME280;47864;52.526;19.672;2023-03-04T02:26:44;100427.78;;;2.00;100.00
61908;BME280;47864;52.526;19.672;2023-03-04T02:28:47;100420.69;;;2.02;100.00
61908;BME280;47864;52.526;19.672;2023-03-04T02:30:49;100427.78;;;2.00;100.00
61908;BME280;47864;52.526;19.672;2023-03-04T02:32:51;100420.09;;;2.11;100.00
61908;BME280;47864;52.526;19.672;2023-03-04T02:34:55;100416.72;;;2.09;100.00
61908;BME280;47864;52.526;19.672;2023-03-04T02:36:56;100415.66;;;1.99;100.00
61908;BME280;47864;52.526;19.672;2023-03-04T02:39:11;100410.72;;;1.94;100.00
61908;BME280;47864;52.526;19.672;2023-03-04T02:41:15;100412.09;;;2.00;100.00
61908;BME280;47864;52.526;19.672;2023-03-04T02:43:19;100414.00;;;1.98;100.00
61908;BME280;47864;52.526;19.672;2023-03-04T02:45:48;100405.41;;;1.96;100.00
61908;BME280;47864;52.526;19.672;2023-03-04T02:47:50;100410.03;;;2.05;100.00
61908;BME280;47864;52.526;19.672;2023-03-04T02:49:51;100413.50;;;2.18;100.00
61908;BME280;47864;52.526;19.672;2023-03-04T02:52:00;100403.72;;;2.07;100.00
61908;BME280;47864;52.526;19.672;2023-03-04T02:54:02;100406.88;;;2.00;100.00
61908;BME280;47864;52.526;19.672;2023-03-04T02:56:04;100386.88;;;1.99;100.00
61908;BME280;47864;52.526;19.672;2023-03-04T02:58:05;100397.66;;;2.07;100.00
61908;BME280;47864;52.526;19.672;2023-03-04T03:00:07;100399.25;;;2.09;100.00
61908;BME280;47864;52.526;19.672;2023-03-04T03:02:09;100387.19;;;2.07;100.00
61908;BME280;47864;52.526;19.672;2023-03-04T03:04:11;100369.63;;;1.96;100.00
61908;BME280;47864;52.526;19.672;2023-03-04T03:06:12;100381.53;;;2.00;100.00
61908;BME280;47864;52.526;19.672;2023-03-04T03:08:14;100388.50;;;2.14;100.00
61908;BME280;47864;52.526;19.672;2023-03-04T03:10:15;100384.19;;;2.13;100.00
61908;BME280;47864;52.526;19.672;2023-03-04T03:12:17;100389.28;;;2.02;100.00
61908;BME280;47864;52.526;19.672;2023-03-04T03:14:18;100383.31;;;2.00;100.00
61908;BME280;47864;52.526;19.672;2023-03-04T03:16:19;100387.84;;;2.10;100.00
61908;BME280;47864;52.526;19.672;2023-03-04T03:18:21;100383.25;;;2.14;100.00
61908;BME280;47864;52.526;19.672;2023-03-04T03:20:23;100385.13;;;2.12;100.00
61908;BME280;47864;52.526;19.672;2023-03-04T03:22:24;100353.59;;;2.01;100.00
61908;BME280;47864;52.526;19.672;2023-03-04T03:24:26;100354.97;;;2.06;100.00
61908;BME280;47864;52.526;19.672;2023-03-04T03:26:27;100369.25;;;2.27;100.00
61908;BME280;47864;52.526;19.672;2023-03-04T03:28:28;100378.88;;;2.27;100.00
61908;BME280;47864;52.526;19.672;2023-03-04T03:30:30;100372.38;;;2.33;100.00
61908;BME280;47864;52.526;19.672;2023-03-04T03:32:31;100365.47;;;2.19;100.00
61908;BME280;47864;52.526;19.672;2023-03-04T03:34:33;100377.69;;;2.31;100.00
61908;BME280;47864;52.526;19.672;2023-03-04T03:36:34;100370.06;;;2.15;100.00
61908;BME280;47864;52.526;19.672;2023-03-04T03:38:37;100358.97;;;2.24;100.00
61908;BME280;47864;52.526;19.672;2023-03-04T03:40:38;100364.63;;;2.31;100.00
61908;BME280;47864;52.526;19.672;2023-03-04T03:42:40;100354.56;;;2.25;100.00
61908;BME280;47864;52.526;19.672;2023-03-04T03:44:41;100343.38;;;2.23;100.00
61908;BME280;47864;52.526;19.672;2023-03-04T03:46:43;100364.00;;;2.40;100.00
61908;BME280;47864;52.526;19.672;2023-03-04T03:48:44;100326.31;;;2.17;100.00
61908;BME280;47864;52.526;19.672;2023-03-04T03:50:46;100358.88;;;2.39;100.00
61908;BME280;47864;52.526;19.672;2023-03-04T03:52:47;100314.78;;;2.07;100.00
61908;BME280;47864;52.526;19.672;2023-03-04T03:54:49;100363.59;;;2.34;100.00
61908;BME280;47864;52.526;19.672;2023-03-04T03:56:50;100347.88;;;2.34;100.00
61908;BME280;47864;52.526;19.672;2023-03-04T03:58:52;100349.75;;;2.32;100.00
61908;BME280;47864;52.526;19.672;2023-03-04T04:00:53;100325.38;;;2.31;100.00
61908;BME280;47864;52.526;19.672;2023-03-04T04:02:59;100327.97;;;2.31;100.00
61908;BME280;47864;52.526;19.672;2023-03-04T04:05:01;100332.81;;;2.37;100.00
61908;BME280;47864;52.526;19.672;2023-03-04T04:07:02;100331.03;;;2.38;100.00
61908;BME280;47864;52.526;19.672;2023-03-04T04:09:04;100327.59;;;2.37;100.00
61908;BME280;47864;52.526;19.672;2023-03-04T04:11:11;100328.63;;;2.35;100.00
61908;BME280;47864;52.526;19.672;2023-03-04T04:13:13;100309.66;;;2.31;100.00
61908;BME280;47864;52.526;19.672;2023-03-04T04:15:14;100322.53;;;2.34;100.00
61908;BME280;47864;52.526;19.672;2023-03-04T04:17:16;100303.91;;;2.26;100.00
61908;BME280;47864;52.526;19.672;2023-03-04T04:19:19;100324.88;;;2.39;100.00
61908;BME280;47864;52.526;19.672;2023-03-04T04:21:21;100311.13;;;2.22;100.00
61908;BME280;47864;52.526;19.672;2023-03-04T04:23:22;100318.66;;;2.40;100.00
61908;BME280;47864;52.526;19.672;2023-03-04T04:25:24;100318.66;;;2.40;100.00
61908;BME280;47864;52.526;19.672;2023-03-04T04:27:25;100325.69;;;2.39;100.00
61908;BME280;47864;52.526;19.672;2023-03-04T04:29:27;100325.16;;;2.34;100.00
61908;BME280;47864;52.526;19.672;2023-03-04T04:31:28;100323.28;;;2.36;100.00
61908;BME280;47864;52.526;19.672;2023-03-04T04:33:29;100318.59;;;2.28;100.00
61908;BME280;47864;52.526;19.672;2023-03-04T04:35:32;100310.31;;;2.35;100.00
61908;BME280;47864;52.526;19.672;2023-03-04T04:37:35;100321.41;;;2.38;100.00
61908;BME280;47864;52.526;19.672;2023-03-04T04:39:37;100313.97;;;2.32;100.00
61908;BME280;47864;52.526;19.672;2023-03-04T04:41:40;100306.22;;;2.31;100.00
61908;BME280;47864;52.526;19.672;2023-03-04T04:43:42;100316.28;;;2.37;100.00
61908;BME280;47864;52.526;19.672;2023-03-04T04:45:43;100297.00;;;2.25;100.00
61908;BME280;47864;52.526;19.672;2023-03-04T04:47:45;100304.66;;;2.28;100.00
61908;BME280;47864;52.526;19.672;2023-03-04T04:49:46;100303.38;;;2.34;100.00
61908;BME280;47864;52.526;19.672;2023-03-04T04:51:47;100295.88;;;2.29;100.00
61908;BME280;47864;52.526;19.672;2023-03-04T04:53:49;100323.38;;;2.47;100.00
61908;BME280;47864;52.526;19.672;2023-03-04T04:55:50;100314.09;;;2.31;100.00
61908;BME280;47864;52.526;19.672;2023-03-04T04:57:52;100285.38;;;2.16;100.00
61908;BME280;47864;52.526;19.672;2023-03-04T04:59:53;100310.19;;;2.36;100.00
61908;BME280;47864;52.526;19.672;2023-03-04T05:01:55;100313.97;;;2.32;100.00
61908;BME280;47864;52.526;19.672;2023-03-04T05:03:56;100319.19;;;2.32;100.00
61908;BME280;47864;52.526;19.672;2023-03-04T05:05:58;100308.63;;;2.34;100.00
61908;BME280;47864;52.526;19.672;2023-03-04T05:07:59;100312.72;;;2.38;100.00
61908;BME280;47864;52.526;19.672;2023-03-04T05:10:01;100300.47;;;2.38;100.00
61908;BME280;47864;52.526;19.672;2023-03-04T05:12:02;100295.97;;;2.27;100.00
61908;BME280;47864;52.526;19.672;2023-03-04T05:14:04;100304.09;;;2.48;100.00
61908;BME280;47864;52.526;19.672;2023-03-04T05:16:06;100309.47;;;2.47;100.00
61908;BME280;47864;52.526;19.672;2023-03-04T05:18:08;100307.91;;;2.44;100.00
61908;BME280;47864;52.526;19.672;2023-03-04T05:20:09;100297.19;;;2.47;100.00
61908;BME280;47864;52.526;19.672;2023-03-04T05:22:11;100259.13;;;2.18;100.00
61908;BME280;47864;52.526;19.672;2023-03-04T05:24:12;100291.75;;;2.50;100.00
61908;BME280;47864;52.526;19.672;2023-03-04T05:26:16;100298.88;;;2.48;100.00
61908;BME280;47864;52.526;19.672;2023-03-04T05:28:18;100293.13;;;2.43;100.00
61908;BME280;47864;52.526;19.672;2023-03-04T05:30:20;100294.69;;;2.46;100.00
61908;BME280;47864;52.526;19.672;2023-03-04T05:32:21;100291.78;;;2.38;100.00
61908;BME280;47864;52.526;19.672;2023-03-04T05:34:23;100292.78;;;2.48;100.00
61908;BME280;47864;52.526;19.672;2023-03-04T05:36:25;100288.63;;;2.45;100.00
61908;BME280;47864;52.526;19.672;2023-03-04T05:38:26;100288.84;;;2.42;100.00
61908;BME280;47864;52.526;19.672;2023-03-04T05:40:28;100288.19;;;2.51;100.00
61908;BME280;47864;52.526;19.672;2023-03-04T05:42:29;100272.19;;;2.43;100.00
61908;BME280;47864;52.526;19.672;2023-03-04T05:44:31;100293.97;;;2.44;100.00
61908;BME280;47864;52.526;19.672;2023-03-04T05:46:32;100284.22;;;2.33;100.00
61908;BME280;47864;52.526;19.672;2023-03-04T05:48:34;100289.66;;;2.43;100.00
61908;BME280;47864;52.526;19.672;2023-03-04T05:50:35;100293.75;;;2.47;100.00
61908;BME280;47864;52.526;19.672;2023-03-04T05:52:37;100293.97;;;2.44;100.00
61908;BME280;47864;52.526;19.672;2023-03-04T05:54:38;100295.84;;;2.42;100.00
61908;BME280;47864;52.526;19.672;2023-03-04T05:56:40;100297.63;;;2.54;100.00
61908;BME280;47864;52.526;19.672;2023-03-04T05:58:42;100279.72;;;2.22;100.00
61908;BME280;47864;52.526;19.672;2023-03-04T06:00:44;100294.59;;;2.35;100.00
61908;BME280;47864;52.526;19.672;2023-03-04T06:02:46;100296.03;;;2.51;100.00
61908;BME280;47864;52.526;19.672;2023-03-04T06:04:47;100286.22;;;2.55;100.00
61908;BME280;47864;52.526;19.672;2023-03-04T06:06:49;100286.50;;;2.50;100.00
61908;BME280;47864;52.526;19.672;2023-03-04T06:08:50;100285.81;;;2.36;100.00
61908;BME280;47864;52.526;19.672;2023-03-04T06:10:54;100287.69;;;2.46;100.00
61908;BME280;47864;52.526;19.672;2023-03-04T06:12:55;100294.69;;;2.46;100.00
61908;BME280;47864;52.526;19.672;2023-03-04T06:14:57;100282.75;;;2.42;100.00
61908;BME280;47864;52.526;19.672;2023-03-04T06:16:58;100292.19;;;2.44;100.00
61908;BME280;47864;52.526;19.672;2023-03-04T06:19:00;100275.94;;;2.39;100.00
61908;BME280;47864;52.526;19.672;2023-03-04T06:21:02;100290.31;;;2.46;100.00
61908;BME280;47864;52.526;19.672;2023-03-04T06:23:04;100289.03;;;2.39;100.00
61908;BME280;47864;52.526;19.672;2023-03-04T06:25:06;100293.44;;;2.51;100.00
61908;BME280;47864;52.526;19.672;2023-03-04T06:27:07;100284.88;;;2.37;100.00
61908;BME280;47864;52.526;19.672;2023-03-04T06:29:09;100287.34;;;2.51;100.00
61908;BME280;47864;52.526;19.672;2023-03-04T06:31:10;100297.19;;;2.47;100.00
61908;BME280;47864;52.526;19.672;2023-03-04T06:33:12;100291.84;;;2.49;100.00
61908;BME280;47864;52.526;19.672;2023-03-04T06:35:15;100286.72;;;2.47;100.00
61908;BME280;47864;52.526;19.672;2023-03-04T06:37:17;100291.44;;;2.42;100.00
61908;BME280;47864;52.526;19.672;2023-03-04T06:39:18;100279.09;;;2.32;100.00
61908;BME280;47864;52.526;19.672;2023-03-04T06:41:19;100273.66;;;2.35;100.00
61908;BME280;47864;52.526;19.672;2023-03-04T06:43:21;100293.88;;;2.45;100.00
61908;BME280;47864;52.526;19.672;2023-03-04T06:45:23;100277.41;;;2.43;100.00
61908;BME280;47864;52.526;19.672;2023-03-04T06:47:24;100286.31;;;2.41;100.00
61908;BME280;47864;52.526;19.672;2023-03-04T06:49:25;100291.22;;;2.58;100.00
61908;BME280;47864;52.526;19.672;2023-03-04T06:51:27;100289.88;;;2.52;100.00
61908;BME280;47864;52.526;19.672;2023-03-04T06:53:29;100281.56;;;2.58;100.00
61908;BME280;47864;52.526;19.672;2023-03-04T06:55:30;100285.56;;;2.51;100.00
61908;BME280;47864;52.526;19.672;2023-03-04T06:57:31;100281.78;;;2.55;100.00
61908;BME280;47864;52.526;19.672;2023-03-04T06:59:33;100284.28;;;2.57;100.00
61908;BME280;47864;52.526;19.672;2023-03-04T07:01:34;100279.28;;;2.54;100.00
61908;BME280;47864;52.526;19.672;2023-03-04T07:03:36;100281.28;;;2.50;100.00
61908;BME280;47864;52.526;19.672;2023-03-04T07:05:37;100276.25;;;2.60;100.00
61908;BME280;47864;52.526;19.672;2023-03-04T07:07:41;100271.28;;;2.68;100.00
61908;BME280;47864;52.526;19.672;2023-03-04T07:09:42;100268.69;;;2.68;100.00
61908;BME280;47864;52.526;19.672;2023-03-04T07:11:44;100271.41;;;2.66;100.00
61908;BME280;47864;52.526;19.672;2023-03-04T07:13:45;100263.69;;;2.52;100.00
61908;BME280;47864;52.526;19.672;2023-03-04T07:15:47;100276.63;;;2.66;100.00
61908;BME280;47864;52.526;19.672;2023-03-04T07:17:48;100258.66;;;2.62;100.00
61908;BME280;47864;52.526;19.672;2023-03-04T07:19:50;100259.88;;;2.69;100.00
61908;BME280;47864;52.526;19.672;2023-03-04T07:21:52;100261.75;;;2.80;100.00
61908;BME280;47864;52.526;19.672;2023-03-04T07:23:53;100228.91;;;2.63;100.00
61908;BME280;47864;52.526;19.672;2023-03-04T07:25:55;100258.03;;;2.82;100.00
61908;BME280;47864;52.526;19.672;2023-03-04T07:27:59;100242.75;;;2.52;100.00
61908;BME280;47864;52.526;19.672;2023-03-04T07:30:01;100256.81;;;2.75;100.00
61908;BME280;47864;52.526;19.672;2023-03-04T07:32:06;100244.34;;;2.79;100.00
61908;BME280;47864;52.526;19.672;2023-03-04T07:34:11;100241.56;;;2.69;100.00
61908;BME280;47864;52.526;19.672;2023-03-04T07:36:13;100256.50;;;2.80;100.00
61908;BME280;47864;52.526;19.672;2023-03-04T07:38:14;100236.63;;;2.64;100.00
61908;BME280;47864;52.526;19.672;2023-03-04T07:40:16;100247.72;;;2.68;100.00
61908;BME280;47864;52.526;19.672;2023-03-04T07:42:17;100243.63;;;2.77;100.00
61908;BME280;47864;52.526;19.672;2023-03-04T07:44:19;100239.59;;;2.84;100.00
61908;BME280;47864;52.526;19.672;2023-03-04T07:46:20;100229.06;;;2.73;100.00
61908;BME280;47864;52.526;19.672;2023-03-04T07:48:22;100251.59;;;2.99;100.00
61908;BME280;47864;52.526;19.672;2023-03-04T07:50:23;100250.16;;;2.95;100.00
61908;BME280;47864;52.526;19.672;2023-03-04T07:52:25;100249.97;;;2.85;100.00
61908;BME280;47864;52.526;19.672;2023-03-04T07:54:26;100249.44;;;2.93;100.00
61908;BME280;47864;52.526;19.672;2023-03-04T07:56:30;100248.59;;;2.92;100.00
61908;BME280;47864;52.526;19.672;2023-03-04T07:58:32;100244.69;;;2.98;100.00
61908;BME280;47864;52.526;19.672;2023-03-04T08:00:34;100221.28;;;2.84;100.00
61908;BME280;47864;52.526;19.672;2023-03-04T08:02:35;100217.81;;;2.83;100.00
61908;BME280;47864;52.526;19.672;2023-03-04T08:04:37;100230.25;;;2.92;100.00
61908;BME280;47864;52.526;19.672;2023-03-04T08:06:40;100234.75;;;2.90;100.00
61908;BME280;47864;52.526;19.672;2023-03-04T08:08:41;100228.78;;;2.88;100.00
61908;BME280;47864;52.526;19.672;2023-03-04T08:10:43;100232.97;;;2.91;100.00
61908;BME280;47864;52.526;19.672;2023-03-04T08:12:45;100242.91;;;2.98;100.00
61908;BME280;47864;52.526;19.672;2023-03-04T08:14:47;100233.88;;;3.02;100.00
61908;BME280;47864;52.526;19.672;2023-03-04T08:16:48;100212.81;;;3.04;100.00
61908;BME280;47864;52.526;19.672;2023-03-04T08:18:53;100216.13;;;3.06;100.00
61908;BME280;47864;52.526;19.672;2023-03-04T08:20:55;100218.31;;;3.12;100.00
61908;BME280;47864;52.526;19.672;2023-03-04T08:22:56;100208.53;;;3.03;100.00
61908;BME280;47864;52.526;19.672;2023-03-04T08:24:58;100212.91;;;3.02;100.00
61908;BME280;47864;52.526;19.672;2023-03-04T08:26:59;100220.50;;;3.18;100.00
61908;BME280;47864;52.526;19.672;2023-03-04T08:29:03;100196.44;;;3.24;100.00
61908;BME280;47864;52.526;19.672;2023-03-04T08:31:05;100195.84;;;3.21;100.00
61908;BME280;47864;52.526;19.672;2023-03-04T08:33:08;100203.84;;;3.30;100.00
61908;BME280;47864;52.526;19.672;2023-03-04T08:35:10;100195.66;;;3.35;100.00
61908;BME280;47864;52.526;19.672;2023-03-04T08:37:11;100204.66;;;3.66;100.00
61908;BME280;47864;52.526;19.672;2023-03-04T08:39:14;100208.47;;;3.62;100.00
61908;BME280;47864;52.526;19.672;2023-03-04T08:41:16;100215.03;;;3.67;100.00
61908;BME280;47864;52.526;19.672;2023-03-04T08:43:17;100206.59;;;3.75;100.00
61908;BME280;47864;52.526;19.672;2023-03-04T08:45:19;100207.38;;;3.64;100.00
61908;BME280;47864;52.526;19.672;2023-03-04T08:47:20;100202.75;;;3.68;100.00
61908;BME280;47864;52.526;19.672;2023-03-04T08:49:22;100205.84;;;3.73;100.00
61908;BME280;47864;52.526;19.672;2023-03-04T08:51:24;100193.09;;;3.68;100.00
61908;BME280;47864;52.526;19.672;2023-03-04T08:53:26;100181.34;;;3.39;100.00
61908;BME280;47864;52.526;19.672;2023-03-04T08:55:27;100134.00;;;3.18;100.00
61908;BME280;47864;52.526;19.672;2023-03-04T08:57:29;100185.81;;;3.61;100.00
61908;BME280;47864;52.526;19.672;2023-03-04T08:59:30;100183.63;;;3.55;100.00
61908;BME280;47864;52.526;19.672;2023-03-04T09:01:32;100178.06;;;3.59;100.00
61908;BME280;47864;52.526;19.672;2023-03-04T09:03:33;100192.16;;;3.69;100.00
61908;BME280;47864;52.526;19.672;2023-03-04T09:05:35;100186.66;;;3.72;100.00
61908;BME280;47864;52.526;19.672;2023-03-04T09:07:37;100202.66;;;3.92;100.00
61908;BME280;47864;52.526;19.672;2023-03-04T09:09:39;100200.03;;;3.92;100.00
61908;BME280;47864;52.526;19.672;2023-03-04T09:11:40;100197.19;;;3.83;100.00
61908;BME280;47864;52.526;19.672;2023-03-04T09:13:42;100175.94;;;3.98;100.00
61908;BME280;47864;52.526;19.672;2023-03-04T09:15:45;100166.16;;;3.77;100.00
61908;BME280;47864;52.526;19.672;2023-03-04T09:17:47;100183.59;;;3.78;100.00
61908;BME280;47864;52.526;19.672;2023-03-04T09:19:49;100199.91;;;3.82;100.00
61908;BME280;47864;52.526;19.672;2023-03-04T09:21:50;100190.72;;;3.76;100.00
61908;BME280;47864;52.526;19.672;2023-03-04T09:23:52;100189.53;;;3.69;100.00
61908;BME280;47864;52.526;19.672;2023-03-04T09:25:53;100174.16;;;3.76;100.00
61908;BME280;47864;52.526;19.672;2023-03-04T09:27:55;100183.44;;;3.80;100.00
61908;BME280;47864;52.526;19.672;2023-03-04T09:29:57;100141.81;;;3.53;100.00
61908;BME280;47864;52.526;19.672;2023-03-04T09:31:58;100189.88;;;3.87;100.00
61908;BME280;47864;52.526;19.672;2023-03-04T09:33:59;100178.91;;;3.82;100.00
61908;BME280;47864;52.526;19.672;2023-03-04T09:36:01;100182.97;;;3.75;100.00
61908;BME280;47864;52.526;19.672;2023-03-04T09:38:03;100175.00;;;3.76;100.00
61908;BME280;47864;52.526;19.672;2023-03-04T09:40:05;100163.66;;;3.76;100.00
61908;BME280;47864;52.526;19.672;2023-03-04T09:42:10;100175.22;;;3.85;100.00
61908;BME280;47864;52.526;19.672;2023-03-04T09:44:17;100169.13;;;3.73;100.00
61908;BME280;47864;52.526;19.672;2023-03-04T09:46:28;100159.72;;;3.81;100.00
61908;BME280;47864;52.526;19.672;2023-03-04T09:48:42;100168.19;;;3.85;100.00
61908;BME280;47864;52.526;19.672;2023-03-04T09:51:37;100118.94;;;3.55;100.00
61908;BME280;47864;52.526;19.672;2023-03-04T09:53:24;100162.13;;;3.85;100.00
61908;BME280;47864;52.526;19.672;2023-03-04T09:55:37;100167.59;;;3.93;100.00
61908;BME280;47864;52.526;19.672;2023-03-04T09:57:43;100162.47;;;3.91;100.00
61908;BME280;47864;52.526;19.672;2023-03-04T10:01:59;100163.66;;;3.87;100.00
61908;BME280;47864;52.526;19.672;2023-03-04T10:04:14;100154.47;;;3.81;100.00
61908;BME280;47864;52.526;19.672;2023-03-04T10:06:19;100158.16;;;3.79;100.00
61908;BME280;47864;52.526;19.672;2023-03-04T10:08:58;100150.66;;;3.74;100.00
61908;BME280;47864;52.526;19.672;2023-03-04T10:11:05;100146.50;;;3.83;100.00
61908;BME280;47864;52.526;19.672;2023-03-04T10:13:16;100148.38;;;3.81;100.00
61908;BME280;47864;52.526;19.672;2023-03-04T10:17:35;100137.88;;;3.48;100.00
61908;BME280;47864;52.526;19.672;2023-03-04T10:22:18;100118.44;;;3.50;100.00
61908;BME280;47864;52.526;19.672;2023-03-04T10:24:24;100132.44;;;3.62;100.00
61908;BME280;47864;52.526;19.672;2023-03-04T10:26:29;100118.13;;;3.77;100.00
61908;BME280;47864;52.526;19.672;2023-03-04T10:28:33;100131.34;;;3.98;100.00
61908;BME280;47864;52.526;19.672;2023-03-04T10:30:58;100134.19;;;4.17;100.00
61908;BME280;47864;52.526;19.672;2023-03-04T10:33:10;100109.78;;;3.94;100.00
61908;BME280;47864;52.526;19.672;2023-03-04T10:35:12;100124.91;;;3.91;100.00
61908;BME280;47864;52.526;19.672;2023-03-04T10:37:14;100111.56;;;3.82;100.00
61908;BME280;47864;52.526;19.672;2023-03-04T10:39:20;100129.09;;;3.93;100.00
61908;BME280;47864;52.526;19.672;2023-03-04T10:41:25;100103.31;;;3.87;100.00
61908;BME280;47864;52.526;19.672;2023-03-04T10:43:27;100130.75;;;3.94;100.00
61908;BME280;47864;52.526;19.672;2023-03-04T10:45:29;100128.72;;;3.98;100.00